createdAt,value
2022-09-28T00:00:13.795Z,78.48
2022-09-28T00:01:13.793Z,78.52
2022-09-28T00:02:13.875Z,78.56
2022-09-28T00:03:13.875Z,78.43
2022-09-28T00:04:13.802Z,78.27
2022-09-28T00:05:13.791Z,78.25
2022-09-28T00:06:13.794Z,78.32
2022-09-28T00:07:13.783Z,78.34
2022-09-28T00:08:13.787Z,78.37
2022-09-28T00:09:13.844Z,78.40
2022-09-28T00:10:13.769Z,78.32
2022-09-28T00:11:13.780Z,78.40
2022-09-28T00:12:13.750Z,78.41
2022-09-28T00:13:13.759Z,78.43
2022-09-28T00:14:13.758Z,78.45
2022-09-28T00:15:13.739Z,78.45
2022-09-28T00:16:13.804Z,78.50
2022-09-28T00:17:13.745Z,78.52
2022-09-28T00:18:13.727Z,78.45
2022-09-28T00:19:13.805Z,78.34
2022-09-28T00:20:13.715Z,78.38
2022-09-28T00:21:13.706Z,78.35
2022-09-28T00:22:13.698Z,78.15
2022-09-28T00:23:13.697Z,78.07
2022-09-28T00:24:13.700Z,78.15
2022-09-28T00:25:13.677Z,78.12
2022-09-28T00:26:13.663Z,78.17
2022-09-28T00:27:13.646Z,78.08
2022-09-28T00:28:13.682Z,77.79
2022-09-28T00:29:13.692Z,77.76
2022-09-28T00:30:13.624Z,77.94
2022-09-28T00:31:13.651Z,77.90
2022-09-28T00:32:13.585Z,77.85
2022-09-28T00:33:13.575Z,77.79
2022-09-28T00:34:13.589Z,77.72
2022-09-28T00:35:13.603Z,77.91
2022-09-28T00:36:13.546Z,77.95
2022-09-28T00:37:13.533Z,78.00
2022-09-28T00:38:13.543Z,77.89
2022-09-28T00:39:13.558Z,77.74
2022-09-28T00:40:13.524Z,77.83
2022-09-28T00:41:13.515Z,77.74
2022-09-28T00:42:13.513Z,77.78
2022-09-28T00:43:13.512Z,77.86
2022-09-28T00:44:13.521Z,77.90
2022-09-28T00:45:13.514Z,77.95
2022-09-28T00:46:13.529Z,78.01
2022-09-28T00:47:13.501Z,78.13
2022-09-28T00:48:13.501Z,78.01
2022-09-28T00:49:13.526Z,77.98
2022-09-28T00:50:13.491Z,77.89
2022-09-28T00:51:13.491Z,77.79
2022-09-28T00:52:13.491Z,77.81
2022-09-28T00:53:13.489Z,77.91
2022-09-28T00:54:13.497Z,77.95
2022-09-28T00:55:13.479Z,77.84
2022-09-28T00:56:13.480Z,77.85
2022-09-28T00:57:13.488Z,77.73
2022-09-28T00:58:13.488Z,77.76
2022-09-28T00:59:13.552Z,77.66
2022-09-28T01:00:13.479Z,77.65
2022-09-28T01:01:13.505Z,77.70
2022-09-28T01:02:13.557Z,77.51
2022-09-28T01:03:13.478Z,77.32
2022-09-28T01:04:13.488Z,77.35
2022-09-28T01:05:13.476Z,77.52
2022-09-28T01:06:13.477Z,77.57
2022-09-28T01:07:13.467Z,77.58
2022-09-28T01:08:13.489Z,77.41
2022-09-28T01:09:13.531Z,77.36
2022-09-28T01:10:13.455Z,77.40
2022-09-28T01:11:13.465Z,77.42
2022-09-28T01:12:13.466Z,77.46
2022-09-28T01:13:13.463Z,77.49
2022-09-28T01:14:13.475Z,77.54
2022-09-28T01:15:13.465Z,77.67
2022-09-28T01:16:13.486Z,77.54
2022-09-28T01:17:13.468Z,77.48
2022-09-28T01:18:13.464Z,77.45
2022-09-28T01:19:13.520Z,77.48
2022-09-28T01:20:13.454Z,77.49
2022-09-28T01:21:13.461Z,77.51
2022-09-28T01:22:13.453Z,77.60
2022-09-28T01:23:13.453Z,77.49
2022-09-28T01:24:13.492Z,77.53
2022-09-28T01:25:13.450Z,77.68
2022-09-28T01:26:13.432Z,77.74
2022-09-28T01:27:13.440Z,77.71
2022-09-28T01:28:13.432Z,77.65
2022-09-28T01:29:13.515Z,77.64
2022-09-28T01:30:13.429Z,77.61
2022-09-28T01:31:13.462Z,77.65
2022-09-28T01:32:13.412Z,77.72
2022-09-28T01:33:13.409Z,77.70
2022-09-28T01:34:13.620Z,77.79
2022-09-28T01:35:13.411Z,78.06
2022-09-28T01:36:13.419Z,78.00
2022-09-28T01:37:13.418Z,77.96
2022-09-28T01:38:13.408Z,77.94
2022-09-28T01:39:13.460Z,77.90
2022-09-28T01:40:13.432Z,77.98
2022-09-28T01:41:13.417Z,78.01
2022-09-28T01:42:13.418Z,77.93
2022-09-28T01:43:13.437Z,77.88
2022-09-28T01:44:13.427Z,77.98
2022-09-28T01:45:13.436Z,77.82
2022-09-28T01:46:13.463Z,77.66
2022-09-28T01:47:13.416Z,77.53
2022-09-28T01:48:13.428Z,77.37
2022-09-28T01:49:13.479Z,77.21
2022-09-28T01:50:13.436Z,77.22
2022-09-28T01:51:13.406Z,77.23
2022-09-28T01:52:13.413Z,77.16
2022-09-28T01:53:13.415Z,77.15
2022-09-28T01:54:13.403Z,77.05
2022-09-28T01:55:13.405Z,77.01
2022-09-28T01:56:13.393Z,77.04
2022-09-28T01:57:13.393Z,77.21
2022-09-28T01:58:13.383Z,77.22
2022-09-28T01:59:13.449Z,77.21
2022-09-28T02:00:13.394Z,77.25
2022-09-28T02:01:13.417Z,77.31
2022-09-28T02:02:13.523Z,77.19
2022-09-28T02:03:13.373Z,77.02
2022-09-28T02:04:13.371Z,77.08
2022-09-28T02:05:13.380Z,77.17
2022-09-28T02:06:13.361Z,77.23
2022-09-28T02:07:13.352Z,77.08
2022-09-28T02:08:13.360Z,77.14
2022-09-28T02:09:13.394Z,77.16
2022-09-28T02:10:13.364Z,77.14
2022-09-28T02:11:13.346Z,76.99
2022-09-28T02:12:13.343Z,77.16
2022-09-28T02:13:13.352Z,77.01
2022-09-28T02:14:13.361Z,76.97
2022-09-28T02:15:13.366Z,77.18
2022-09-28T02:16:13.385Z,77.22
2022-09-28T02:17:13.351Z,77.47
2022-09-28T02:18:13.349Z,77.74
2022-09-28T02:19:13.413Z,77.56
2022-09-28T02:20:13.370Z,77.33
2022-09-28T02:21:13.358Z,77.33
2022-09-28T02:22:13.337Z,77.37
2022-09-28T02:23:13.357Z,77.31
2022-09-28T02:24:13.337Z,77.24
2022-09-28T02:25:13.358Z,77.30
2022-09-28T02:26:13.350Z,77.37
2022-09-28T02:27:13.345Z,77.35
2022-09-28T02:28:13.347Z,77.35
2022-09-28T02:29:13.350Z,77.49
2022-09-28T02:30:13.336Z,77.46
2022-09-28T02:31:13.373Z,77.36
2022-09-28T02:32:13.335Z,77.34
2022-09-28T02:33:13.343Z,77.31
2022-09-28T02:34:13.364Z,77.30
2022-09-28T02:35:13.344Z,77.27
2022-09-28T02:36:13.347Z,77.38
2022-09-28T02:37:13.333Z,77.49
2022-09-28T02:38:13.344Z,77.68
2022-09-28T02:39:13.444Z,77.58
2022-09-28T02:40:13.343Z,77.67
2022-09-28T02:41:13.341Z,77.74
2022-09-28T02:42:13.341Z,77.82
2022-09-28T02:43:13.342Z,77.99
2022-09-28T02:44:13.350Z,78.25
2022-09-28T02:45:13.332Z,78.27
2022-09-28T02:46:13.368Z,78.24
2022-09-28T02:47:13.322Z,78.21
2022-09-28T02:48:13.329Z,78.15
2022-09-28T02:49:22.082Z,78.26
2022-09-28T02:50:14.320Z,78.35
2022-09-28T02:51:13.320Z,78.32
2022-09-28T02:52:13.330Z,78.46
2022-09-28T02:53:13.328Z,78.42
2022-09-28T02:54:17.993Z,78.40
2022-09-28T02:55:14.320Z,78.36
2022-09-28T02:56:13.318Z,78.37
2022-09-28T02:57:13.309Z,78.46
2022-09-28T02:58:13.308Z,78.48
2022-09-28T02:59:13.321Z,78.54
2022-09-28T03:00:13.300Z,78.57
2022-09-28T03:01:13.302Z,78.48
2022-09-28T03:02:13.376Z,78.46
2022-09-28T03:03:13.287Z,78.46
2022-09-28T03:04:13.287Z,78.33
2022-09-28T03:05:13.304Z,78.35
2022-09-28T03:06:13.286Z,78.36
2022-09-28T03:07:13.284Z,78.32
2022-09-28T03:08:13.286Z,78.45
2022-09-28T03:09:13.310Z,78.49
2022-09-28T03:10:13.285Z,78.43
2022-09-28T03:11:13.275Z,78.39
2022-09-28T03:12:13.273Z,78.36
2022-09-28T03:13:13.276Z,78.54
2022-09-28T03:14:13.263Z,78.59
2022-09-28T03:15:13.264Z,78.50
2022-09-28T03:16:13.291Z,78.37
2022-09-28T03:17:13.255Z,78.37
2022-09-28T03:18:13.251Z,78.49
2022-09-28T03:19:13.274Z,78.62
2022-09-28T03:20:13.255Z,78.61
2022-09-28T03:21:13.223Z,78.41
2022-09-28T03:22:13.223Z,78.41
2022-09-28T03:23:24.221Z,78.53
2022-09-28T03:24:14.203Z,78.61
2022-09-28T03:25:13.210Z,78.70
2022-09-28T03:26:13.181Z,78.71
2022-09-28T03:27:13.172Z,78.85
2022-09-28T03:28:13.171Z,78.74
2022-09-28T03:29:13.150Z,78.46
2022-09-28T03:30:13.148Z,78.19
2022-09-28T03:31:13.189Z,77.99
2022-09-28T03:32:13.129Z,77.80
2022-09-28T03:33:13.111Z,77.59
2022-09-28T03:34:13.109Z,77.60
2022-09-28T03:35:13.109Z,77.73
2022-09-28T03:36:13.108Z,77.89
2022-09-28T03:37:13.138Z,78.07
2022-09-28T03:38:13.133Z,78.14
2022-09-28T03:39:13.101Z,78.06
2022-09-28T03:40:13.111Z,78.08
2022-09-28T03:41:13.098Z,78.17
2022-09-28T03:42:13.097Z,78.29
2022-09-28T03:43:13.097Z,78.25
2022-09-28T03:44:13.094Z,78.30
2022-09-28T03:45:13.104Z,78.41
2022-09-28T03:46:13.130Z,78.30
2022-09-28T03:47:13.067Z,78.25
2022-09-28T03:48:13.066Z,78.26
2022-09-28T03:49:13.058Z,78.29
2022-09-28T03:50:13.055Z,78.27
2022-09-28T03:51:13.036Z,78.20
2022-09-28T03:52:13.028Z,78.04
2022-09-28T03:53:13.033Z,77.96
2022-09-28T03:54:13.022Z,77.86
2022-09-28T03:55:13.024Z,77.93
2022-09-28T03:56:13.012Z,77.92
2022-09-28T03:57:13.004Z,77.96
2022-09-28T03:58:13.017Z,78.03
2022-09-28T03:59:13.120Z,78.03
2022-09-28T04:00:13.005Z,78.03
2022-09-28T04:01:16.901Z,78.14
2022-09-28T04:02:13.027Z,78.32
2022-09-28T04:03:12.992Z,78.27
2022-09-28T04:04:12.992Z,78.23
2022-09-28T04:05:12.980Z,78.45
2022-09-28T04:06:12.972Z,78.43
2022-09-28T04:07:12.971Z,78.37
2022-09-28T04:08:12.975Z,78.38
2022-09-28T04:09:12.984Z,78.43
2022-09-28T04:10:12.960Z,78.39
2022-09-28T04:11:12.940Z,78.41
2022-09-28T04:12:12.940Z,78.48
2022-09-28T04:13:12.933Z,78.52
2022-09-28T04:14:12.931Z,78.50
2022-09-28T04:15:14.351Z,78.50
2022-09-28T04:16:13.050Z,78.43
2022-09-28T04:17:12.949Z,78.33
2022-09-28T04:18:12.898Z,78.33
2022-09-28T04:19:12.920Z,78.40
2022-09-28T04:20:12.886Z,78.38
2022-09-28T04:21:12.881Z,78.43
2022-09-28T04:22:12.877Z,78.33
2022-09-28T04:23:12.875Z,78.22
2022-09-28T04:24:12.907Z,78.16
2022-09-28T04:25:12.865Z,78.16
2022-09-28T04:26:12.869Z,78.15
2022-09-28T04:27:12.857Z,78.21
2022-09-28T04:28:12.864Z,78.11
2022-09-28T04:29:12.899Z,78.18
2022-09-28T04:30:12.844Z,78.20
2022-09-28T04:31:12.865Z,78.27
2022-09-28T04:32:12.847Z,78.26
2022-09-28T04:33:12.834Z,78.22
2022-09-28T04:34:12.854Z,78.31
2022-09-28T04:35:12.814Z,78.25
2022-09-28T04:36:12.815Z,78.27
2022-09-28T04:37:12.802Z,78.17
2022-09-28T04:38:12.801Z,78.20
2022-09-28T04:39:12.777Z,78.14
2022-09-28T04:40:12.791Z,78.20
2022-09-28T04:41:12.774Z,78.31
2022-09-28T04:42:12.770Z,78.29
2022-09-28T04:43:12.763Z,78.20
2022-09-28T04:44:12.764Z,77.94
2022-09-28T04:45:12.772Z,77.94
2022-09-28T04:46:12.832Z,78.00
2022-09-28T04:47:12.750Z,78.09
2022-09-28T04:48:12.751Z,78.11
2022-09-28T04:49:12.760Z,78.11
2022-09-28T04:50:12.769Z,78.16
2022-09-28T04:51:12.740Z,78.17
2022-09-28T04:52:18.060Z,78.16
2022-09-28T04:53:13.730Z,78.15
2022-09-28T04:54:12.737Z,78.05
2022-09-28T04:55:12.739Z,78.00
2022-09-28T04:56:12.728Z,78.06
2022-09-28T04:57:12.730Z,77.84
2022-09-28T04:58:12.729Z,77.74
2022-09-28T04:59:12.829Z,77.69
2022-09-28T05:00:12.731Z,77.88
2022-09-28T05:01:12.787Z,77.97
2022-09-28T05:02:12.747Z,78.00
2022-09-28T05:03:12.716Z,78.00
2022-09-28T05:04:12.696Z,78.05
2022-09-28T05:05:12.706Z,78.05
2022-09-28T05:06:12.686Z,78.13
2022-09-28T05:07:12.707Z,78.17
2022-09-28T05:08:12.688Z,78.13
2022-09-28T05:09:13.373Z,78.22
2022-09-28T05:10:12.715Z,78.29
2022-09-28T05:11:12.692Z,78.33
2022-09-28T05:12:12.665Z,78.32
2022-09-28T05:13:12.673Z,78.35
2022-09-28T05:14:12.675Z,78.28
2022-09-28T05:15:12.673Z,78.22
2022-09-28T05:16:12.727Z,78.13
2022-09-28T05:17:12.665Z,78.18
2022-09-28T05:18:12.664Z,78.10
2022-09-28T05:19:12.673Z,78.14
2022-09-28T05:20:12.653Z,78.16
2022-09-28T05:21:12.654Z,78.18
2022-09-28T05:22:12.643Z,78.22
2022-09-28T05:23:12.643Z,78.39
2022-09-28T05:24:12.651Z,78.39
2022-09-28T05:25:12.642Z,78.32
2022-09-28T05:26:12.652Z,78.32
2022-09-28T05:27:12.649Z,78.25
2022-09-28T05:28:12.630Z,78.16
2022-09-28T05:29:12.629Z,78.08
2022-09-28T05:30:12.622Z,78.07
2022-09-28T05:31:12.630Z,78.11
2022-09-28T05:32:12.620Z,78.05
2022-09-28T05:33:12.620Z,78.12
2022-09-28T05:34:12.610Z,78.21
2022-09-28T05:35:12.619Z,78.13
2022-09-28T05:36:12.630Z,78.23
2022-09-28T05:37:12.619Z,78.27
2022-09-28T05:38:12.608Z,78.01
2022-09-28T05:39:12.607Z,78.01
2022-09-28T05:40:12.605Z,77.97
2022-09-28T05:41:12.608Z,77.94
2022-09-28T05:42:12.608Z,77.99
2022-09-28T05:43:12.615Z,78.11
2022-09-28T05:44:12.617Z,78.17
2022-09-28T05:45:12.606Z,78.14
2022-09-28T05:46:12.682Z,78.15
2022-09-28T05:47:12.619Z,78.12
2022-09-28T05:48:12.606Z,78.16
2022-09-28T05:49:12.605Z,78.20
2022-09-28T05:50:12.604Z,78.25
2022-09-28T05:51:12.615Z,78.07
2022-09-28T05:52:12.602Z,78.09
2022-09-28T05:53:12.603Z,78.01
2022-09-28T05:54:12.594Z,78.08
2022-09-28T05:55:12.602Z,78.12
2022-09-28T05:56:12.604Z,78.13
2022-09-28T05:57:12.612Z,78.10
2022-09-28T05:58:12.604Z,78.01
2022-09-28T05:59:12.602Z,78.00
2022-09-28T06:00:12.604Z,77.99
2022-09-28T06:01:12.670Z,78.13
2022-09-28T06:02:12.649Z,78.05
2022-09-28T06:03:12.606Z,78.01
2022-09-28T06:04:12.593Z,78.14
2022-09-28T06:05:12.590Z,78.15
2022-09-28T06:06:12.591Z,78.19
2022-09-28T06:07:12.613Z,78.15
2022-09-28T06:08:12.601Z,78.08
2022-09-28T06:09:12.602Z,78.12
2022-09-28T06:10:12.623Z,78.13
2022-09-28T06:11:12.611Z,78.18
2022-09-28T06:12:12.620Z,78.23
2022-09-28T06:13:12.610Z,78.25
2022-09-28T06:14:12.610Z,78.17
2022-09-28T06:15:12.610Z,78.12
2022-09-28T06:16:12.667Z,78.08
2022-09-28T06:17:12.642Z,78.18
2022-09-28T06:18:12.639Z,77.96
2022-09-28T06:19:12.638Z,77.95
2022-09-28T06:20:12.644Z,77.84
2022-09-28T06:21:12.639Z,77.58
2022-09-28T06:22:12.659Z,77.51
2022-09-28T06:23:12.647Z,77.55
2022-09-28T06:24:12.647Z,77.46
2022-09-28T06:25:12.643Z,77.54
2022-09-28T06:26:12.665Z,77.52
2022-09-28T06:27:12.650Z,77.68
2022-09-28T06:28:12.646Z,77.89
2022-09-28T06:29:16.020Z,77.75
2022-09-28T06:30:13.667Z,77.66
2022-09-28T06:31:12.726Z,77.65
2022-09-28T06:32:12.665Z,77.68
2022-09-28T06:33:12.655Z,77.75
2022-09-28T06:34:12.653Z,77.84
2022-09-28T06:35:12.649Z,77.92
2022-09-28T06:36:12.654Z,77.95
2022-09-28T06:37:12.674Z,77.89
2022-09-28T06:38:12.672Z,77.94
2022-09-28T06:39:12.663Z,77.86
2022-09-28T06:40:12.732Z,77.71
2022-09-28T06:41:12.677Z,77.57
2022-09-28T06:42:12.662Z,77.46
2022-09-28T06:43:12.646Z,77.49
2022-09-28T06:44:12.642Z,77.42
2022-09-28T06:45:12.632Z,77.24
2022-09-28T06:46:12.750Z,76.97
2022-09-28T06:47:12.651Z,76.76
2022-09-28T06:48:12.651Z,76.74
2022-09-28T06:49:15.098Z,76.91
2022-09-28T06:50:13.641Z,76.94
2022-09-28T06:51:12.643Z,76.83
2022-09-28T06:52:12.649Z,76.76
2022-09-28T06:53:12.641Z,76.79
2022-09-28T06:54:12.630Z,76.72
2022-09-28T06:55:12.643Z,76.59
2022-09-28T06:56:12.632Z,76.64
2022-09-28T06:57:12.630Z,76.94
2022-09-28T06:58:12.628Z,77.07
2022-09-28T06:59:12.625Z,77.25
2022-09-28T07:00:12.618Z,77.18
2022-09-28T07:01:12.723Z,77.38
2022-09-28T07:02:12.685Z,77.32
2022-09-28T07:03:12.640Z,77.29
2022-09-28T07:04:12.625Z,77.17
2022-09-28T07:05:12.628Z,77.05
2022-09-28T07:06:12.637Z,77.06
2022-09-28T07:07:12.636Z,77.15
2022-09-28T07:08:12.637Z,77.10
2022-09-28T07:09:30.602Z,77.06
2022-09-28T07:10:13.605Z,76.89
2022-09-28T07:11:12.636Z,76.77
2022-09-28T07:12:12.635Z,76.82
2022-09-28T07:13:32.591Z,76.88
2022-09-28T07:14:23.257Z,76.83
2022-09-28T07:15:13.615Z,76.79
2022-09-28T07:16:12.678Z,76.67
2022-09-28T07:17:14.465Z,76.60
2022-09-28T07:18:12.666Z,76.66
2022-09-28T07:19:12.623Z,76.61
2022-09-28T07:20:18.777Z,76.62
2022-09-28T07:21:26.156Z,76.59
2022-09-28T07:22:18.201Z,76.65
2022-09-28T07:23:19.118Z,76.57
2022-09-28T07:24:13.668Z,76.59
2022-09-28T07:25:12.640Z,76.43
2022-09-28T07:26:12.641Z,76.52
2022-09-28T07:27:12.623Z,76.51
2022-09-28T07:28:12.623Z,76.45
2022-09-28T07:29:12.622Z,76.52
2022-09-28T07:30:12.619Z,76.49
2022-09-28T07:31:12.657Z,76.46
2022-09-28T07:32:12.628Z,76.46
2022-09-28T07:33:12.629Z,76.47
2022-09-28T07:34:12.616Z,76.32
2022-09-28T07:35:12.629Z,76.62
2022-09-28T07:36:12.620Z,76.65
2022-09-28T07:37:12.632Z,76.51
2022-09-28T07:38:12.628Z,76.42
2022-09-28T07:39:12.620Z,76.36
2022-09-28T07:40:12.618Z,76.64
2022-09-28T07:41:12.621Z,76.59
2022-09-28T07:42:12.627Z,76.50
2022-09-28T07:43:12.617Z,76.38
2022-09-28T07:44:12.610Z,76.27
2022-09-28T07:45:12.616Z,76.26
2022-09-28T07:46:12.676Z,76.06
2022-09-28T07:47:12.614Z,75.96
2022-09-28T07:49:12.622Z,75.66
2022-09-28T07:50:12.595Z,75.55
2022-09-28T07:51:12.606Z,75.66
2022-09-28T07:52:12.615Z,75.75
2022-09-28T07:53:12.566Z,75.90
2022-09-28T07:54:12.568Z,75.80
2022-09-28T07:55:12.570Z,75.79
2022-09-28T07:56:12.564Z,76.09
2022-09-28T07:57:12.566Z,75.84
2022-09-28T07:58:12.563Z,75.56
2022-09-28T07:59:12.574Z,75.47
2022-09-28T08:00:12.600Z,75.46
2022-09-28T08:01:12.636Z,75.67
2022-09-28T08:02:12.638Z,75.71
2022-09-28T08:03:12.591Z,75.76
2022-09-28T08:04:12.584Z,75.82
2022-09-28T08:05:12.581Z,75.89
2022-09-28T08:06:12.607Z,75.68
2022-09-28T08:07:12.598Z,75.32
2022-09-28T08:08:12.601Z,75.19
2022-09-28T08:09:12.609Z,75.00
2022-09-28T08:10:12.621Z,74.82
2022-09-28T08:11:12.620Z,74.83
2022-09-28T08:12:12.623Z,74.91
2022-09-28T08:13:12.641Z,75.00
2022-09-28T08:14:12.630Z,74.95
2022-09-28T08:15:12.640Z,74.90
2022-09-28T08:16:12.783Z,74.86
2022-09-28T08:17:12.660Z,75.02
2022-09-28T08:18:12.672Z,74.92
2022-09-28T08:19:12.665Z,75.02
2022-09-28T08:20:13.378Z,74.79
2022-09-28T08:21:12.698Z,74.64
2022-09-28T08:22:12.695Z,74.49
2022-09-28T08:23:17.454Z,74.42
2022-09-28T08:24:12.729Z,74.32
2022-09-28T08:25:12.721Z,74.32
2022-09-28T08:26:15.533Z,74.09
2022-09-28T08:27:12.833Z,73.96
2022-09-28T08:28:12.867Z,74.18
2022-09-28T08:29:12.735Z,74.07
2022-09-28T08:30:12.952Z,74.10
2022-09-28T08:31:12.823Z,74.27
2022-09-28T08:32:12.765Z,74.33
2022-09-28T08:33:12.767Z,74.43
2022-09-28T08:34:12.780Z,74.47
2022-09-28T08:35:12.793Z,74.31
2022-09-28T08:36:13.734Z,74.28
2022-09-28T08:37:13.183Z,74.23
2022-09-28T08:38:12.805Z,74.48
2022-09-28T08:39:12.824Z,74.64
2022-09-28T08:40:12.824Z,74.86
2022-09-28T08:41:12.841Z,75.23
2022-09-28T08:42:13.350Z,75.33
2022-09-28T08:43:13.393Z,74.89
2022-09-28T08:44:12.897Z,74.68
2022-09-28T08:45:12.925Z,74.50
2022-09-28T08:46:12.964Z,74.22
2022-09-28T08:47:12.861Z,74.07
2022-09-28T08:48:16.431Z,74.21
2022-09-28T08:49:24.980Z,74.07
2022-09-28T08:50:13.879Z,74.04
2022-09-28T08:51:12.904Z,74.26
2022-09-28T08:52:12.904Z,74.27
2022-09-28T08:53:12.901Z,74.50
2022-09-28T08:54:12.963Z,74.66
2022-09-28T08:55:12.921Z,74.59
2022-09-28T08:56:12.950Z,74.61
2022-09-28T08:57:12.928Z,74.93
2022-09-28T08:58:12.950Z,74.72
2022-09-28T08:59:12.949Z,74.55
2022-09-28T09:00:13.021Z,74.56
2022-09-28T09:01:13.050Z,74.50
2022-09-28T09:02:12.977Z,74.42
2022-09-28T09:03:12.967Z,74.55
2022-09-28T09:04:12.960Z,74.85
2022-09-28T09:05:12.957Z,74.89
2022-09-28T09:06:17.630Z,74.95
2022-09-28T09:07:13.966Z,75.02
2022-09-28T09:08:12.986Z,74.98
2022-09-28T09:09:12.985Z,75.07
2022-09-28T09:10:12.989Z,75.16
2022-09-28T09:11:13.008Z,75.24
2022-09-28T09:12:13.004Z,75.36
2022-09-28T09:13:13.016Z,75.18
2022-09-28T09:14:12.994Z,74.69
2022-09-28T09:15:13.013Z,74.42
2022-09-28T09:16:13.067Z,74.39
2022-09-28T09:17:13.023Z,74.30
2022-09-28T09:18:14.613Z,74.23
2022-09-28T09:19:13.042Z,74.17
2022-09-28T09:20:13.043Z,74.14
2022-09-28T09:21:13.053Z,73.95
2022-09-28T09:22:13.056Z,73.60
2022-09-28T09:23:13.108Z,73.51
2022-09-28T09:24:13.131Z,73.39
2022-09-28T09:25:13.074Z,73.27
2022-09-28T09:26:15.292Z,73.16
2022-09-28T09:27:13.092Z,73.19
2022-09-28T09:28:13.101Z,73.29
2022-09-28T09:29:13.110Z,73.28
2022-09-28T09:30:13.823Z,73.16
2022-09-28T09:31:13.174Z,73.36
2022-09-28T09:32:26.968Z,73.32
2022-09-28T09:33:26.509Z,73.39
2022-09-28T09:34:26.584Z,73.13
2022-09-28T09:35:30.427Z,73.13
2022-09-28T09:36:26.417Z,73.10
2022-09-28T09:37:26.409Z,73.29
2022-09-28T09:38:26.319Z,73.01
2022-09-28T09:39:26.303Z,72.81
2022-09-28T09:40:26.438Z,72.62
2022-09-28T09:41:26.244Z,72.42
2022-09-28T09:42:26.203Z,72.48
2022-09-28T09:43:29.361Z,72.75
2022-09-28T09:44:27.166Z,72.93
2022-09-28T09:45:26.105Z,73.14
2022-09-28T09:46:26.196Z,72.97
2022-09-28T09:47:26.043Z,72.75
2022-09-28T09:48:26.003Z,72.84
2022-09-28T09:49:25.985Z,72.97
2022-09-28T09:50:25.944Z,73.11
2022-09-28T09:51:25.894Z,73.33
2022-09-28T09:52:25.925Z,73.76
2022-09-28T09:53:25.833Z,73.60
2022-09-28T09:54:25.793Z,73.42
2022-09-28T09:55:29.939Z,73.42
2022-09-28T09:56:25.730Z,73.40
2022-09-28T09:57:25.702Z,73.42
2022-09-28T09:58:25.662Z,73.49
2022-09-28T09:59:25.631Z,73.40
2022-09-28T10:00:25.591Z,73.34
2022-09-28T10:01:25.590Z,73.37
2022-09-28T10:02:25.602Z,73.33
2022-09-28T10:03:25.491Z,73.16
2022-09-28T10:04:25.450Z,73.05
2022-09-28T10:05:25.424Z,73.07
2022-09-28T10:06:25.389Z,73.18
2022-09-28T10:07:25.405Z,73.26
2022-09-28T10:08:25.326Z,73.30
2022-09-28T10:09:25.320Z,73.23
2022-09-28T10:10:25.249Z,73.18
2022-09-28T10:11:25.208Z,73.14
2022-09-28T10:12:25.177Z,72.93
2022-09-28T10:13:25.139Z,72.85
2022-09-28T10:14:25.105Z,72.72
2022-09-28T10:15:25.066Z,72.32
2022-09-28T10:16:25.083Z,72.18
2022-09-28T10:17:25.006Z,72.31
2022-09-28T10:18:24.981Z,72.04
2022-09-28T10:19:24.926Z,71.90
2022-09-28T10:20:24.885Z,72.01
2022-09-28T10:21:24.847Z,72.07
2022-09-28T10:22:24.825Z,72.24
2022-09-28T10:23:24.784Z,72.14
2022-09-28T10:24:24.743Z,72.01
2022-09-28T10:25:24.706Z,71.91
2022-09-28T10:26:25.331Z,71.83
2022-09-28T10:27:24.644Z,71.89
2022-09-28T10:28:24.585Z,71.98
2022-09-28T10:29:24.553Z,72.04
2022-09-28T10:30:24.532Z,72.11
2022-09-28T10:31:24.483Z,72.02
2022-09-28T10:32:24.463Z,72.02
2022-09-28T10:33:24.393Z,72.07
2022-09-28T10:34:24.355Z,72.10
2022-09-28T10:35:24.311Z,72.09
2022-09-28T10:36:24.271Z,72.12
2022-09-28T10:37:24.228Z,72.16
2022-09-28T10:38:24.161Z,72.36
2022-09-28T10:39:24.131Z,72.44
2022-09-28T10:40:24.123Z,72.70
2022-09-28T10:41:24.040Z,72.90
2022-09-28T10:42:24.020Z,73.21
2022-09-28T10:43:23.930Z,73.20
2022-09-28T10:44:23.890Z,72.83
2022-09-28T10:45:23.860Z,72.64
2022-09-28T10:46:23.886Z,72.57
2022-09-28T10:47:23.759Z,72.54
2022-09-28T10:48:23.698Z,72.70
2022-09-28T10:49:23.657Z,72.82
2022-09-28T10:50:23.607Z,72.93
2022-09-28T10:51:23.557Z,73.00
2022-09-28T10:52:23.516Z,73.07
2022-09-28T10:53:23.457Z,73.06
2022-09-28T10:54:23.416Z,73.16
2022-09-28T10:55:23.369Z,73.25
2022-09-28T10:56:23.318Z,73.24
2022-09-28T10:57:23.307Z,73.11
2022-09-28T10:58:23.235Z,73.07
2022-09-28T10:59:23.195Z,72.98
2022-09-28T11:00:23.151Z,72.99
2022-09-28T11:01:23.136Z,72.65
2022-09-28T11:02:23.140Z,72.56
2022-09-28T11:03:23.033Z,72.56
2022-09-28T11:04:22.972Z,72.50
2022-09-28T11:05:22.924Z,72.36
2022-09-28T11:06:22.873Z,72.40
2022-09-28T11:07:22.844Z,72.65
2022-09-28T11:08:22.799Z,72.45
2022-09-28T11:09:29.768Z,72.33
2022-09-28T11:10:22.693Z,72.16
2022-09-28T11:11:22.650Z,72.29
2022-09-28T11:12:22.592Z,72.56
2022-09-28T11:13:22.552Z,72.74
2022-09-28T11:14:22.491Z,72.79
2022-09-28T11:15:22.466Z,72.78
2022-09-28T11:16:22.450Z,72.78
2022-09-28T11:17:22.340Z,72.68
2022-09-28T11:18:22.301Z,72.58
2022-09-28T11:19:22.243Z,72.46
2022-09-28T11:20:27.012Z,72.64
2022-09-28T11:21:23.139Z,72.61
2022-09-28T11:22:22.112Z,72.32
2022-09-28T11:23:22.057Z,72.28
2022-09-28T11:24:22.236Z,72.29
2022-09-28T11:25:21.968Z,72.44
2022-09-28T11:26:21.916Z,72.33
2022-09-28T11:27:21.868Z,72.22
2022-09-28T11:28:21.827Z,72.29
2022-09-28T11:29:21.775Z,72.23
2022-09-28T11:30:21.757Z,72.21
2022-09-28T11:31:21.656Z,72.22
2022-09-28T11:32:21.636Z,72.50
2022-09-28T11:33:21.592Z,72.68
2022-09-28T11:34:30.957Z,72.75
2022-09-28T11:35:22.495Z,72.78
2022-09-28T11:36:21.455Z,72.81
2022-09-28T11:37:21.425Z,72.78
2022-09-28T11:38:21.335Z,72.55
2022-09-28T11:39:21.297Z,72.55
2022-09-28T11:40:21.304Z,72.70
2022-09-28T11:41:21.205Z,72.88
2022-09-28T11:42:21.157Z,72.69
2022-09-28T11:43:21.103Z,72.28
2022-09-28T11:44:21.054Z,72.00
2022-09-28T11:45:21.004Z,71.65
2022-09-28T11:46:21.051Z,71.67
2022-09-28T11:47:21.863Z,71.56
2022-09-28T11:48:20.873Z,71.62
2022-09-28T11:49:20.821Z,71.84
2022-09-28T11:50:24.111Z,72.27
2022-09-28T11:51:20.890Z,72.16
2022-09-28T11:52:20.691Z,72.54
2022-09-28T11:53:20.618Z,72.40
2022-09-28T11:54:20.550Z,72.34
2022-09-28T11:55:20.492Z,72.22
2022-09-28T11:56:20.443Z,72.02
2022-09-28T11:57:20.410Z,71.50
2022-09-28T11:58:20.359Z,71.26
2022-09-28T11:59:20.297Z,71.13
2022-09-28T12:00:20.239Z,70.82
2022-09-28T12:01:20.207Z,70.85
2022-09-28T12:02:20.218Z,70.88
2022-09-28T12:03:20.235Z,70.88
2022-09-28T12:04:20.059Z,70.89
2022-09-28T12:05:21.080Z,71.05
2022-09-28T12:06:19.977Z,71.14
2022-09-28T12:07:19.927Z,71.46
2022-09-28T12:08:19.882Z,71.69
2022-09-28T12:09:19.922Z,71.34
2022-09-28T12:10:19.794Z,71.23
2022-09-28T12:11:19.726Z,70.92
2022-09-28T12:12:19.715Z,70.70
2022-09-28T12:13:19.645Z,70.99
2022-09-28T12:14:19.603Z,71.11
2022-09-28T12:15:19.557Z,70.83
2022-09-28T12:17:20.556Z,70.55
2022-09-28T12:18:19.415Z,70.78
2022-09-28T12:19:19.527Z,71.00
2022-09-28T12:20:19.322Z,71.28
2022-09-28T12:21:19.272Z,71.31
2022-09-28T12:22:19.236Z,71.50
2022-09-28T12:23:19.188Z,71.63
2022-09-28T12:24:19.132Z,71.46
2022-09-28T12:25:19.082Z,71.25
2022-09-28T12:26:19.040Z,71.22
2022-09-28T12:27:19.010Z,71.33
2022-09-28T12:28:18.931Z,71.36
2022-09-28T12:29:18.973Z,71.30
2022-09-28T12:30:18.852Z,71.26
2022-09-28T12:31:18.834Z,71.13
2022-09-28T12:32:18.760Z,71.03
2022-09-28T12:33:18.721Z,70.68
2022-09-28T12:34:18.677Z,70.50
2022-09-28T12:35:18.660Z,70.52
2022-09-28T12:36:18.580Z,70.42
2022-09-28T12:37:18.568Z,70.38
2022-09-28T12:38:18.489Z,70.37
2022-09-28T12:39:30.972Z,70.39
2022-09-28T12:40:19.439Z,70.49
2022-09-28T12:41:18.368Z,70.64
2022-09-28T12:42:18.317Z,70.82
2022-09-28T12:43:18.278Z,70.97
2022-09-28T12:44:18.229Z,71.20
2022-09-28T12:45:18.169Z,71.42
2022-09-28T12:46:18.202Z,71.43
2022-09-28T12:47:18.057Z,71.49
2022-09-28T12:48:18.017Z,71.23
2022-09-28T12:50:13.851Z,71.04
2022-09-28T12:50:38.460Z,71.02
2022-09-28T12:51:18.827Z,71.11
2022-09-28T12:52:17.783Z,70.81
2022-09-28T12:53:17.816Z,70.92
2022-09-28T12:54:17.812Z,70.91